createdAt,value
2018-10-07T00:00:01.403Z,97.50
2018-10-07T00:02:29.439Z,97.97
2018-10-07T00:04:57.484Z,92.97
2018-10-07T00:07:25.512Z,92.30
2018-10-07T00:09:53.824Z,90.35
2018-10-07T00:12:21.861Z,90.30
2018-10-07T00:14:49.868Z,53.10
2018-10-07T00:17:17.889Z,50.67
2018-10-07T00:19:45.923Z,48.23
2018-10-07T00:22:13.943Z,40.83
2018-10-07T00:24:42.000Z,40.67
2018-10-07T00:27:10.025Z,34.57
2018-10-07T00:29:38.067Z,34.37
2018-10-07T00:32:11.753Z,32.37
2018-10-07T00:34:39.784Z,37.90
2018-10-07T00:37:07.884Z,28.03
2018-10-07T00:39:35.903Z,25.80
2018-10-07T00:42:04.648Z,25.02
2018-10-07T00:44:32.771Z,26.40
2018-10-07T00:47:00.788Z,27.20
2018-10-07T00:49:28.939Z,21.53
2018-10-07T00:51:56.981Z,21.37
2018-10-07T00:54:25.005Z,27.13
2018-10-07T00:56:53.306Z,18.17
2018-10-07T00:59:21.404Z,21.30
2018-10-07T01:01:49.564Z,22.20
2018-10-07T01:04:17.612Z,22.93
2018-10-07T01:06:45.679Z,19.43
2018-10-07T01:09:13.819Z,20.77
2018-10-07T01:14:29.334Z,24.87
2018-10-07T01:16:57.350Z,18.83
2018-10-07T01:19:25.375Z,21.13
2018-10-07T01:21:53.393Z,16.03
2018-10-07T01:24:21.552Z,16.27
2018-10-07T01:26:49.584Z,14.70
2018-10-07T01:29:17.606Z,16.63
2018-10-07T01:31:45.643Z,10.97
2018-10-07T01:34:13.660Z,12.55
2018-10-07T01:36:41.684Z,11.47
2018-10-07T01:39:10.836Z,7.80
2018-10-07T01:41:38.852Z,10.73
2018-10-07T01:44:06.909Z,8.00
2018-10-07T01:46:34.921Z,9.90
2018-10-07T01:49:03.015Z,11.37
2018-10-07T01:51:31.023Z,7.60
2018-10-07T01:53:59.036Z,10.83
2018-10-07T01:56:27.071Z,8.03
2018-10-07T01:58:55.104Z,10.83
2018-10-07T02:01:23.863Z,10.57
2018-10-07T02:03:52.916Z,6.87
2018-10-07T02:06:20.936Z,9.13
2018-10-07T02:08:48.975Z,6.93
2018-10-07T02:11:16.989Z,6.83
2018-10-07T02:13:45.021Z,7.57
2018-10-07T02:16:13.324Z,9.17
2018-10-07T02:18:41.335Z,8.73
2018-10-07T02:21:09.355Z,6.53
2018-10-07T02:23:37.367Z,5.83
2018-10-07T02:26:05.390Z,8.47
2018-10-07T02:28:33.391Z,9.20
2018-10-07T02:31:01.412Z,6.40
2018-10-07T02:33:29.427Z,7.35
2018-10-07T02:35:57.452Z,7.03
2018-10-07T02:38:25.468Z,6.30
2018-10-07T02:40:53.484Z,5.97
2018-10-07T02:43:21.665Z,7.37
2018-10-07T02:45:49.688Z,4.93
2018-10-07T02:48:17.715Z,6.73
2018-10-07T02:50:45.916Z,4.43
2018-10-07T02:53:13.978Z,6.23
2018-10-07T02:55:41.943Z,5.67
2018-10-07T02:58:10.008Z,5.60
2018-10-07T03:00:38.010Z,4.23
2018-10-07T03:03:06.102Z,5.17
2018-10-07T03:05:34.123Z,5.90
2018-10-07T03:08:02.128Z,5.73
2018-10-07T03:10:30.132Z,4.03
2018-10-07T03:12:58.147Z,4.07
2018-10-07T03:15:26.164Z,5.20
2018-10-07T03:17:54.176Z,3.67
2018-10-07T03:20:22.197Z,3.15
2018-10-07T03:22:50.208Z,3.33
2018-10-07T03:25:18.212Z,4.10
2018-10-07T03:27:46.224Z,2.60
2018-10-07T03:30:14.236Z,2.72
2018-10-07T03:32:42.254Z,4.77
2018-10-07T03:35:10.271Z,3.53
2018-10-07T03:37:38.280Z,2.80
2018-10-07T03:40:06.319Z,4.33
2018-10-07T03:42:34.319Z,2.17
2018-10-07T03:45:02.335Z,3.27
2018-10-07T03:47:30.360Z,3.43
2018-10-07T03:49:58.367Z,2.00
2018-10-07T03:52:26.383Z,3.73
2018-10-07T03:54:54.387Z,1.90
2018-10-07T03:57:22.556Z,3.17
2018-10-07T03:59:50.872Z,3.07
2018-10-07T04:02:18.883Z,3.40
2018-10-07T04:04:46.900Z,2.80
2018-10-07T04:07:14.914Z,2.30
2018-10-07T04:09:42.912Z,2.73
2018-10-07T04:12:10.932Z,4.20
2018-10-07T04:14:39.103Z,2.30
2018-10-07T04:17:07.179Z,3.63
2018-10-07T04:19:35.204Z,3.00
2018-10-07T04:22:03.220Z,1.57
2018-10-07T04:24:32.555Z,3.13
2018-10-07T04:27:00.559Z,3.30
2018-10-07T04:29:28.697Z,2.47
2018-10-07T04:31:56.902Z,1.40
2018-10-07T04:34:24.919Z,2.37
2018-10-07T04:36:52.919Z,3.07
2018-10-07T04:39:21.103Z,3.95
2018-10-07T04:41:49.117Z,2.93
2018-10-07T04:44:17.110Z,4.43
2018-10-07T04:46:45.131Z,2.77
2018-10-07T04:49:13.131Z,4.12
2018-10-07T04:51:41.292Z,4.47
2018-10-07T04:54:09.611Z,1.98
2018-10-07T04:56:37.603Z,2.80
2018-10-07T04:59:06.468Z,3.93
2018-10-07T05:01:34.501Z,2.20
2018-10-07T05:04:02.508Z,4.77
2018-10-07T05:06:32.474Z,3.60
2018-10-07T05:09:01.458Z,3.63
2018-10-07T05:11:29.715Z,2.83
2018-10-07T05:13:58.028Z,2.57
2018-10-07T05:16:35.108Z,1.87
2018-10-07T05:19:03.125Z,5.83
2018-10-07T05:21:31.127Z,1.43
2018-10-07T05:23:59.561Z,2.00
2018-10-07T05:26:28.451Z,4.67
2018-10-07T05:28:56.477Z,2.90
2018-10-07T05:31:24.492Z,3.23
2018-10-07T05:33:53.725Z,1.97
2018-10-07T05:36:22.000Z,2.60
2018-10-07T05:38:50.060Z,5.03
2018-10-07T05:41:18.072Z,4.67
2018-10-07T05:43:46.204Z,2.03
2018-10-07T05:46:14.360Z,2.13
2018-10-07T05:48:42.372Z,2.00
2018-10-07T05:51:10.379Z,3.77
2018-10-07T05:53:38.384Z,3.37
2018-10-07T05:56:06.473Z,3.30
2018-10-07T05:58:35.052Z,3.00
2018-10-07T06:01:07.404Z,2.90
2018-10-07T06:03:45.755Z,2.63
2018-10-07T06:06:13.760Z,2.73
2018-10-07T06:08:41.811Z,2.10
2018-10-07T06:11:09.831Z,2.73
2018-10-07T06:13:37.944Z,3.70
2018-10-07T06:16:05.975Z,2.70
2018-10-07T06:18:33.984Z,2.90
2018-10-07T06:21:01.985Z,2.00
2018-10-07T06:23:30.068Z,6.00
2018-10-07T06:25:58.076Z,3.50
2018-10-07T06:28:26.139Z,3.13
2018-10-07T06:30:54.139Z,3.53
2018-10-07T06:33:22.149Z,3.42
2018-10-07T06:35:50.156Z,3.03
2018-10-07T06:38:18.167Z,1.93
2018-10-07T06:40:46.191Z,3.20
2018-10-07T06:43:14.196Z,3.00
2018-10-07T06:45:42.238Z,4.30
2018-10-07T06:48:10.224Z,2.90
2018-10-07T06:50:38.241Z,3.37
2018-10-07T06:53:06.288Z,2.43
2018-10-07T06:55:34.288Z,4.93
2018-10-07T06:58:02.303Z,3.10
2018-10-07T07:00:30.312Z,4.10
2018-10-07T07:02:58.324Z,2.77
2018-10-07T07:05:26.344Z,2.40
2018-10-07T07:07:54.350Z,2.70
2018-10-07T07:10:22.371Z,3.87
2018-10-07T07:12:50.435Z,3.13
2018-10-07T07:15:18.387Z,2.67
2018-10-07T07:17:46.391Z,3.70
2018-10-07T07:20:14.457Z,4.42
2018-10-07T07:22:42.411Z,3.77
2018-10-07T07:25:10.584Z,2.43
2018-10-07T07:27:39.612Z,2.73
2018-10-07T07:30:07.647Z,2.47
2018-10-07T07:32:36.127Z,2.13
2018-10-07T07:35:04.653Z,5.10
2018-10-07T07:37:32.888Z,2.83
2018-10-07T07:40:00.955Z,2.97
2018-10-07T07:42:29.040Z,4.03
2018-10-07T07:44:57.112Z,2.00
2018-10-07T07:47:25.182Z,2.10
2018-10-07T07:49:53.248Z,4.03
2018-10-07T07:52:21.276Z,2.40
2018-10-07T07:54:49.393Z,4.07
2018-10-07T07:57:17.389Z,2.00
2018-10-07T07:59:45.532Z,4.50
2018-10-07T08:02:13.548Z,2.83
2018-10-07T08:04:41.564Z,4.20
2018-10-07T08:07:09.571Z,4.33
2018-10-07T08:09:37.580Z,4.00
2018-10-07T08:12:05.591Z,2.53
2018-10-07T08:14:34.513Z,5.07
2018-10-07T08:17:02.512Z,4.43
2018-10-07T08:19:30.516Z,3.80
2018-10-07T08:21:58.532Z,6.20
2018-10-07T08:24:26.543Z,4.13
2018-10-07T08:26:54.552Z,3.40
2018-10-07T08:29:29.729Z,4.17
2018-10-07T08:31:57.740Z,4.60
2018-10-07T08:34:25.772Z,4.43
2018-10-07T08:36:53.787Z,5.03
2018-10-07T08:39:21.793Z,3.90
2018-10-07T08:41:50.447Z,2.60
2018-10-07T08:44:18.945Z,3.37
2018-10-07T08:46:47.835Z,5.70
2018-10-07T08:49:16.016Z,2.93
2018-10-07T08:51:44.028Z,2.03
2018-10-07T08:54:12.028Z,4.87
2018-10-07T08:56:40.055Z,3.03
2018-10-07T08:59:08.192Z,5.07
2018-10-07T09:01:36.200Z,3.90
2018-10-07T09:04:05.383Z,4.15
2018-10-07T09:06:33.390Z,4.20
2018-10-07T09:09:01.537Z,4.77
2018-10-07T09:11:29.428Z,3.07
2018-10-07T09:13:57.432Z,5.47
2018-10-07T09:16:25.600Z,2.33
2018-10-07T09:18:53.611Z,3.63
2018-10-07T09:21:21.627Z,3.03
2018-10-07T09:23:49.644Z,7.00
2018-10-07T09:26:17.667Z,6.80
2018-10-07T09:28:46.348Z,4.83
2018-10-07T09:31:14.407Z,5.43
2018-10-07T09:33:42.417Z,5.00
2018-10-07T09:36:10.427Z,2.98
2018-10-07T09:38:38.444Z,3.80
2018-10-07T09:41:06.587Z,4.13
2018-10-07T09:43:34.800Z,3.43
2018-10-07T09:46:02.811Z,2.90
2018-10-07T09:48:30.888Z,2.17
2018-10-07T09:50:58.891Z,3.47
2018-10-07T09:53:26.900Z,4.13
2018-10-07T09:55:54.936Z,4.08
2018-10-07T09:58:22.944Z,4.13
2018-10-07T10:00:50.964Z,5.93
2018-10-07T10:03:19.127Z,2.97
2018-10-07T10:05:47.481Z,3.03
2018-10-07T10:08:15.532Z,5.43
2018-10-07T10:10:43.590Z,4.53
2018-10-07T10:13:11.800Z,3.70
2018-10-07T10:15:39.804Z,5.17
2018-10-07T10:18:09.567Z,2.10
2018-10-07T10:20:47.981Z,3.23
2018-10-07T10:23:57.393Z,3.67
2018-10-07T10:26:40.111Z,3.93
2018-10-07T10:29:11.365Z,4.67
2018-10-07T10:31:50.224Z,2.73
2018-10-07T10:34:26.384Z,4.50
2018-10-07T10:37:01.215Z,3.67
2018-10-07T10:39:43.989Z,2.13
2018-10-07T10:42:38.265Z,1.70
2018-10-07T10:45:06.777Z,2.70
2018-10-07T10:47:39.144Z,3.57
2018-10-07T10:50:16.164Z,4.90
2018-10-07T10:52:52.224Z,2.80
2018-10-07T10:56:25.194Z,2.40
2018-10-07T11:01:06.067Z,4.03
2018-10-07T11:03:53.687Z,3.73
2018-10-07T11:06:32.249Z,2.30
2018-10-07T11:09:05.214Z,4.30
2018-10-07T11:11:43.228Z,2.03
2018-10-07T11:15:23.671Z,1.93
2018-10-07T11:20:09.595Z,4.00
2018-10-07T11:22:48.756Z,2.63
2018-10-07T11:25:24.084Z,2.03
2018-10-07T11:28:00.624Z,2.97
2018-10-07T11:31:38.775Z,2.00
2018-10-07T11:34:25.979Z,4.17
2018-10-07T11:37:07.469Z,5.20
2018-10-07T11:41:46.908Z,2.53
2018-10-07T11:44:25.875Z,2.90
2018-10-07T11:47:04.927Z,3.53
2018-10-07T11:49:37.495Z,3.60
2018-10-07T11:52:46.278Z,2.13
2018-10-07T11:55:14.235Z,3.67
2018-10-07T11:57:43.650Z,3.97
2018-10-07T12:00:11.675Z,2.40
2018-10-07T12:02:40.071Z,2.47
2018-10-07T12:05:07.866Z,2.10
2018-10-07T12:07:36.125Z,5.73
2018-10-07T12:10:04.691Z,2.10
2018-10-07T12:12:32.704Z,2.27
2018-10-07T12:15:00.735Z,1.53
2018-10-07T12:17:28.788Z,3.47
2018-10-07T12:19:56.807Z,1.33
2018-10-07T12:22:24.984Z,2.03
2018-10-07T12:24:53.000Z,1.90
2018-10-07T12:27:21.024Z,1.57
2018-10-07T12:29:49.444Z,3.03
2018-10-07T12:32:17.535Z,1.83
2018-10-07T12:34:45.544Z,1.63
2018-10-07T12:37:13.598Z,4.47
2018-10-07T12:39:41.737Z,3.27
2018-10-07T12:42:10.108Z,2.23
2018-10-07T12:44:39.109Z,3.00
2018-10-07T12:47:07.183Z,3.43
2018-10-07T12:49:35.243Z,1.90
2018-10-07T12:52:03.265Z,2.33
2018-10-07T12:54:31.317Z,3.30
2018-10-07T12:56:59.295Z,2.80
2018-10-07T12:59:27.524Z,1.50
2018-10-07T13:01:55.560Z,2.80
2018-10-07T13:04:23.580Z,1.60
2018-10-07T13:06:51.752Z,2.93
2018-10-07T13:09:20.442Z,1.57
2018-10-07T13:11:48.800Z,2.10
2018-10-07T13:14:16.823Z,2.75
2018-10-07T13:16:44.839Z,1.77
2018-10-07T13:19:13.337Z,1.60
2018-10-07T13:21:41.348Z,1.63
2018-10-07T13:24:09.368Z,1.83
2018-10-07T13:26:37.388Z,2.43
2018-10-07T13:29:05.568Z,1.23
2018-10-07T13:31:33.604Z,2.30
2018-10-07T13:34:02.045Z,2.73
2018-10-07T13:36:30.096Z,2.15
2018-10-07T13:38:58.967Z,2.03
2018-10-07T13:41:27.488Z,1.80
2018-10-07T13:43:55.504Z,1.23
2018-10-07T13:46:23.632Z,1.83
2018-10-07T13:48:51.661Z,1.60
2018-10-07T13:51:19.688Z,1.70
2018-10-07T13:53:47.692Z,2.93
2018-10-07T13:56:15.704Z,2.98
2018-10-07T13:58:44.018Z,1.27
2018-10-07T14:01:12.059Z,2.10
2018-10-07T14:03:40.208Z,3.37
2018-10-07T14:06:08.213Z,2.87
2018-10-07T14:08:36.542Z,2.10
2018-10-07T14:11:04.823Z,2.40
2018-10-07T14:13:33.024Z,1.67
2018-10-07T14:16:01.103Z,4.20
2018-10-07T14:18:29.469Z,1.87
2018-10-07T14:20:57.488Z,1.57
2018-10-07T14:23:25.508Z,1.47
2018-10-07T14:25:53.707Z,3.63
2018-10-07T14:28:21.775Z,3.92
2018-10-07T14:30:49.804Z,3.33
2018-10-07T14:33:17.827Z,3.53
2018-10-07T14:35:46.200Z,2.87
2018-10-07T14:38:14.368Z,2.27
2018-10-07T14:40:42.684Z,4.30
2018-10-07T14:43:10.724Z,1.32
2018-10-07T14:45:38.725Z,3.07
2018-10-07T14:48:06.764Z,3.13
2018-10-07T14:50:34.784Z,1.40
2018-10-07T14:53:02.804Z,2.30
2018-10-07T14:55:31.043Z,2.07
2018-10-07T14:57:59.068Z,1.47
2018-10-07T15:00:27.294Z,1.30
2018-10-07T15:02:55.308Z,1.83
2018-10-07T15:05:23.437Z,2.02
2018-10-07T15:07:51.524Z,3.00
2018-10-07T15:10:19.552Z,2.42
2018-10-07T15:12:47.614Z,3.37
2018-10-07T15:15:16.667Z,2.97
2018-10-07T15:17:44.688Z,1.60
2018-10-07T15:20:12.712Z,2.58
2018-10-07T15:22:40.858Z,2.63
2018-10-07T15:25:08.902Z,2.72
2018-10-07T15:27:37.017Z,2.13
2018-10-07T15:30:05.931Z,3.87
2018-10-07T15:32:33.973Z,1.50
2018-10-07T15:35:02.017Z,3.87
2018-10-07T15:37:30.016Z,2.10
2018-10-07T15:39:58.327Z,2.50
2018-10-07T15:42:26.351Z,2.63
2018-10-07T15:44:54.399Z,2.50
2018-10-07T15:47:22.448Z,3.73
2018-10-07T15:49:50.587Z,2.20
2018-10-07T15:52:18.641Z,3.37
2018-10-07T15:54:46.651Z,2.10
2018-10-07T15:57:15.528Z,2.47
2018-10-07T15:59:47.434Z,2.20
2018-10-07T16:02:15.455Z,2.42
2018-10-07T16:04:43.476Z,2.50
2018-10-07T16:07:11.492Z,4.97
2018-10-07T16:09:39.555Z,3.20
2018-10-07T16:12:07.779Z,2.87
2018-10-07T16:14:35.884Z,3.00
2018-10-07T16:17:03.901Z,1.67
2018-10-07T16:19:31.911Z,3.93
2018-10-07T16:22:00.102Z,5.03
2018-10-07T16:24:28.210Z,2.40
2018-10-07T16:26:57.054Z,3.37
2018-10-07T16:29:25.079Z,4.67
2018-10-07T16:31:53.288Z,2.20
2018-10-07T16:34:22.285Z,2.70
2018-10-07T16:36:50.471Z,5.57
2018-10-07T16:39:19.560Z,15.00
2018-10-07T16:41:47.725Z,19.40
2018-10-07T16:44:15.750Z,16.73
2018-10-07T16:46:43.770Z,14.23
2018-10-07T16:49:11.949Z,7.15
2018-10-07T16:51:40.017Z,10.13
2018-10-07T16:54:08.032Z,10.23
2018-10-07T16:56:36.239Z,6.90
2018-10-07T16:59:05.867Z,9.68
2018-10-07T17:01:33.920Z,8.77
2018-10-07T17:04:02.759Z,6.73
2018-10-07T17:06:30.766Z,9.57
2018-10-07T17:08:58.785Z,6.50
2018-10-07T17:11:26.886Z,6.80
2018-10-07T17:13:54.924Z,6.97
2018-10-07T17:16:23.035Z,6.07
2018-10-07T17:18:51.076Z,5.10
2018-10-07T17:21:19.293Z,7.05
2018-10-07T17:23:48.007Z,9.20
2018-10-07T17:26:16.088Z,10.00
2018-10-07T17:28:44.136Z,6.53
2018-10-07T17:31:12.184Z,7.10
2018-10-07T17:33:40.245Z,8.10
2018-10-07T17:36:08.574Z,10.03
2018-10-07T17:38:36.592Z,7.40
2018-10-07T17:41:05.198Z,17.40
2018-10-07T17:43:34.022Z,17.37
2018-10-07T17:46:20.613Z,15.13
2018-10-07T17:48:49.136Z,10.23
2018-10-07T17:51:17.552Z,8.60
2018-10-07T17:53:45.612Z,8.43
2018-10-07T17:56:13.726Z,6.83
2018-10-07T17:58:41.899Z,7.33
2018-10-07T18:01:09.944Z,5.53
2018-10-07T18:03:38.948Z,7.57
2018-10-07T18:06:07.028Z,4.97
2018-10-07T18:08:35.284Z,5.70
2018-10-07T18:11:03.483Z,6.70
2018-10-07T18:13:31.549Z,6.33
2018-10-07T18:15:59.599Z,5.30
2018-10-07T18:18:27.682Z,5.17
2018-10-07T18:20:55.897Z,5.00
2018-10-07T18:23:23.909Z,4.03
2018-10-07T18:25:51.935Z,4.73
2018-10-07T18:28:19.972Z,5.27
2018-10-07T18:30:48.032Z,5.20
2018-10-07T18:33:16.064Z,6.87
2018-10-07T18:35:44.175Z,6.87
2018-10-07T18:38:12.216Z,7.05
2018-10-07T18:40:40.229Z,7.90
2018-10-07T18:43:08.274Z,8.37
2018-10-07T18:45:36.484Z,6.87
2018-10-07T18:48:05.057Z,8.37
2018-10-07T18:50:33.092Z,6.20
2018-10-07T18:53:02.203Z,6.87
2018-10-07T18:55:30.280Z,7.33
2018-10-07T18:57:58.299Z,7.33
2018-10-07T19:00:26.329Z,7.37
2018-10-07T19:02:54.664Z,7.17
2018-10-07T19:05:22.563Z,5.50
2018-10-07T19:07:50.596Z,5.40
2018-10-07T19:10:18.615Z,6.93
2018-10-07T19:12:46.622Z,7.07
2018-10-07T19:15:29.201Z,6.35
2018-10-07T19:17:57.215Z,6.60
2018-10-07T19:20:25.237Z,8.33
2018-10-07T19:22:53.274Z,7.40
2018-10-07T19:25:21.944Z,6.85
2018-10-07T19:27:49.971Z,7.77
2018-10-07T19:30:18.156Z,7.35
2018-10-07T19:32:46.181Z,8.30
2018-10-07T19:35:14.844Z,6.87
2018-10-07T19:37:42.872Z,6.63
2018-10-07T19:40:10.888Z,6.63
2018-10-07T19:42:39.006Z,6.20
2018-10-07T19:45:07.021Z,6.67
2018-10-07T19:47:35.089Z,6.17
2018-10-07T19:50:04.139Z,7.10
2018-10-07T19:52:32.162Z,7.77
2018-10-07T19:55:00.500Z,7.40
2018-10-07T19:57:29.500Z,9.75
2018-10-07T19:59:57.509Z,9.37
2018-10-07T20:02:25.544Z,10.53
2018-10-07T20:04:53.590Z,12.57
2018-10-07T20:07:21.628Z,12.10
2018-10-07T20:09:49.708Z,14.03
2018-10-07T20:12:17.760Z,14.23
2018-10-07T20:14:45.788Z,11.67
2018-10-07T20:17:14.795Z,11.37
2018-10-07T20:19:42.831Z,12.30
2018-10-07T20:22:13.153Z,9.33
2018-10-07T20:24:41.277Z,9.10
2018-10-07T20:27:09.602Z,10.85
2018-10-07T20:29:37.625Z,10.97
2018-10-07T20:32:05.697Z,9.60
2018-10-07T20:34:33.805Z,9.90
2018-10-07T20:37:01.825Z,9.47
2018-10-07T20:39:29.871Z,9.17
2018-10-07T20:41:57.896Z,15.47
2018-10-07T20:44:25.979Z,22.80
2018-10-07T20:46:54.043Z,21.73
2018-10-07T20:49:22.072Z,26.83
2018-10-07T20:51:53.280Z,29.70
2018-10-07T20:54:18.116Z,27.93
2018-10-07T20:56:46.315Z,26.03
2018-10-07T20:59:15.352Z,22.27
2018-10-07T21:01:43.377Z,19.50
2018-10-07T21:04:11.396Z,17.33
2018-10-07T21:06:40.322Z,15.67
2018-10-07T21:09:09.728Z,14.67
2018-10-07T21:11:38.152Z,14.40
2018-10-07T21:14:06.832Z,14.17
2018-10-07T21:16:34.885Z,13.93
2018-10-07T21:19:09.809Z,13.17
2018-10-07T21:21:37.836Z,11.80
2018-10-07T21:24:05.909Z,9.67
2018-10-07T21:26:33.896Z,9.10
2018-10-07T21:29:01.904Z,9.23
2018-10-07T21:31:30.056Z,7.83
2018-10-07T21:33:58.132Z,9.60
2018-10-07T21:36:26.159Z,9.87
2018-10-07T21:38:54.175Z,8.93
2018-10-07T21:41:22.286Z,13.32
2018-10-07T21:43:50.302Z,11.27
2018-10-07T21:46:18.807Z,9.53
2018-10-07T21:48:47.040Z,9.93
2018-10-07T21:51:15.048Z,10.00
2018-10-07T21:53:43.620Z,9.97
2018-10-07T21:56:11.811Z,9.60
2018-10-07T21:58:39.755Z,9.43
2018-10-07T22:01:08.098Z,8.93
2018-10-07T22:03:36.105Z,9.03
2018-10-07T22:06:04.960Z,9.60
2018-10-07T22:08:33.251Z,9.13
2018-10-07T22:11:01.259Z,9.30
2018-10-07T22:13:29.280Z,8.80
2018-10-07T22:15:57.307Z,9.30
2018-10-07T22:18:25.572Z,8.90
2018-10-07T22:20:53.620Z,8.10
2018-10-07T22:23:21.696Z,8.93
2018-10-07T22:25:49.787Z,10.10
2018-10-07T22:28:17.859Z,11.50
2018-10-07T22:30:46.228Z,11.13
2018-10-07T22:33:14.288Z,9.90
2018-10-07T22:35:42.359Z,9.23
2018-10-07T22:38:10.757Z,8.73
2018-10-07T22:40:38.775Z,8.80
2018-10-07T22:43:06.796Z,8.27
2018-10-07T22:45:34.816Z,8.77
2018-10-07T22:48:02.824Z,9.45
2018-10-07T22:50:31.396Z,9.27
2018-10-07T22:52:59.410Z,9.07
2018-10-07T22:55:27.424Z,9.40
2018-10-07T22:57:55.442Z,10.43
2018-10-07T23:00:23.537Z,10.33
2018-10-07T23:02:51.504Z,9.07
2018-10-07T23:05:19.542Z,9.03
2018-10-07T23:07:47.896Z,10.03
2018-10-07T23:10:15.930Z,11.40
2018-10-07T23:12:43.953Z,12.17
2018-10-07T23:15:12.416Z,12.07
2018-10-07T23:17:40.496Z,12.40
2018-10-07T23:20:08.594Z,14.23
2018-10-07T23:22:36.649Z,13.97
2018-10-07T23:25:05.100Z,13.47
2018-10-07T23:27:33.416Z,13.00
2018-10-07T23:32:41.018Z,11.47
2018-10-07T23:35:09.052Z,11.67
2018-10-07T23:37:37.092Z,10.87
2018-10-07T23:40:05.308Z,11.03
2018-10-07T23:42:33.496Z,10.50
2018-10-07T23:45:01.566Z,9.73
2018-10-07T23:47:29.585Z,9.47
2018-10-07T23:49:58.016Z,9.58
2018-10-07T23:52:26.376Z,8.90
2018-10-07T23:54:54.851Z,8.53
2018-10-07T23:57:23.019Z,8.87
2018-10-07T23:59:51.040Z,8.17
